Grosse Ile, MI

2:53 PM EST on February 25, 2018 (GMT -0500)
Grosse Ile Municipal

Weather History for KONZ - December, 2012

Change the Weather History Date:

Sunday, December 9, 2012

  Actual Average (KDTW) Record (KDTW)
Temperature  
Mean Temperature 38 °F -  
Max Temperature 42 °F 38 °F 58 °F (1946)
Min Temperature 35 °F 24 °F -5 °F (1876)
Degree Days  
Heating Degree Days 26    
Moisture  
Dew Point 34 °F    
Average Humidity 86    
Maximum Humidity 93    
Minimum Humidity 70    
Precipitation  
Precipitation 0.17 in - - ()
Sea Level Pressure  
Sea Level Pressure 29.96 in    
Wind  
Wind Speed 7 mph (ENE)    
Max Wind Speed 13 mph    
Max Gust Speed 17 mph    
Visibility 7 miles    
Events Fog , Rain    
Averages and records for this station are not official NWS values.
T = Trace of Precipitation, MM = Missing Value Source: NWS Daily Summary

Daily Weather History Graph

Daily Weather History Graph

Search for Another Location

Airport or City:

Trip Planner

Search our weather history database for the weather conditions in past years. The results will help you decide how hot, cold, wet, or windy it might be!

Date:

Astronomy

Dec. 09, 2012 Rise Set
Actual Time 7:49 AM EST 5:00 PM EST
Civil Twilight 7:18 AM EST 5:32 PM EST
Nautical Twilight 6:42 AM EST 6:07 PM EST
Astronomical Twilight 6:08 AM EST 6:41 PM EST
Moon 3:17 AM EST (12/9) 2:09 PM EST (12/9)
Length of Visible Light 10h 14m
Length of Day
9h 11m
Waning Crescent, 19% of the Moon is Illuminated
Dec 9
Waning Crescent
Dec 13
New
Dec 20
First Quarter
Dec 28
Full
Jan 4
Last Quarter

Hourly Weather History & Observations

Time (EST) Temp. Windchill Dew Point Humidity Pressure Visibility Wind Dir Wind Speed Gust Speed Precip Events Conditions
12:14 AM 35.6 °F 29.9 °F 30.2 °F 81% 30.16 in 10.0 mi NNE 6.9 mph - N/A   Overcast
12:34 AM 35.6 °F 29.2 °F 30.2 °F 81% 30.16 in 10.0 mi NE 8.1 mph - N/A   Overcast
12:54 AM 35.6 °F 28.0 °F 30.2 °F 81% 30.16 in 10.0 mi NNE 10.4 mph - N/A   Overcast
1:14 AM 35.6 °F 28.6 °F 30.2 °F 81% 30.16 in 10.0 mi NE 9.2 mph - N/A   Overcast
1:34 AM 35.6 °F 29.2 °F 30.2 °F 81% 30.16 in 10.0 mi NE 8.1 mph - N/A   Overcast
1:54 AM 35.6 °F 29.9 °F 32.0 °F 87% 30.16 in 10.0 mi ENE 6.9 mph - N/A   Overcast
2:14 AM 35.6 °F 29.9 °F 32.0 °F 87% 30.17 in 10.0 mi ENE 6.9 mph - N/A   Overcast
2:34 AM 35.6 °F 29.9 °F 32.0 °F 87% 30.17 in 10.0 mi NE 6.9 mph - N/A   Overcast
2:54 AM 35.6 °F 29.2 °F 32.0 °F 87% 30.15 in 10.0 mi NE 8.1 mph - N/A   Overcast
3:14 AM 35.6 °F 29.2 °F 32.0 °F 87% 30.15 in 10.0 mi ENE 8.1 mph - N/A   Overcast
3:34 AM 35.6 °F 29.9 °F 32.0 °F 87% 30.15 in 10.0 mi ENE 6.9 mph - N/A   Scattered Clouds
3:54 AM 35.6 °F 29.9 °F 30.2 °F 81% 30.16 in 10.0 mi ENE 6.9 mph - N/A   Mostly Cloudy
4:15 AM 35.6 °F 30.7 °F 30.2 °F 81% 30.16 in 10.0 mi ENE 5.8 mph - N/A   Mostly Cloudy
4:34 AM 35.6 °F 30.7 °F 30.2 °F 81% 30.15 in 10.0 mi East 5.8 mph - N/A   Mostly Cloudy
4:54 AM 35.6 °F 28.6 °F 30.2 °F 81% 30.15 in 10.0 mi ENE 9.2 mph - N/A   Overcast
5:14 AM 35.6 °F 28.6 °F 30.2 °F 81% 30.15 in 10.0 mi East 9.2 mph - N/A   Overcast
5:34 AM 35.6 °F 29.2 °F 28.4 °F 75% 30.15 in 10.0 mi East 8.1 mph - N/A   Overcast
5:54 AM 35.6 °F 29.2 °F 28.4 °F 75% 30.16 in 10.0 mi East 8.1 mph - N/A   Overcast
6:14 AM 35.6 °F 29.2 °F 26.6 °F 70% 30.16 in 10.0 mi ENE 8.1 mph - N/A   Overcast
6:34 AM 35.6 °F 28.0 °F 28.4 °F 75% 30.15 in 10.0 mi ENE 10.4 mph - N/A   Overcast
6:54 AM 35.6 °F 28.6 °F 28.4 °F 75% 30.15 in 10.0 mi ENE 9.2 mph - N/A   Overcast
7:14 AM 35.6 °F 29.2 °F 28.4 °F 75% 30.15 in 10.0 mi East 8.1 mph - N/A   Overcast
7:34 AM 35.6 °F 28.6 °F 28.4 °F 75% 30.14 in 10.0 mi ENE 9.2 mph - N/A   Overcast
7:54 AM 35.6 °F 28.0 °F 30.2 °F 81% 30.13 in 10.0 mi ENE 10.4 mph - N/A   Mostly Cloudy
8:14 AM 35.6 °F 28.0 °F 30.2 °F 81% 30.13 in 10.0 mi ENE 10.4 mph - N/A   Mostly Cloudy
8:34 AM 35.6 °F 27.1 °F 30.2 °F 81% 30.13 in 10.0 mi NE 12.7 mph - N/A   Overcast
8:55 AM 35.6 °F 28.0 °F 30.2 °F 81% 30.11 in 10.0 mi ENE 10.4 mph - N/A   Overcast
9:14 AM 35.6 °F 28.6 °F 30.2 °F 81% 30.10 in 10.0 mi ENE 9.2 mph - N/A   Mostly Cloudy
9:34 AM 35.6 °F 29.9 °F 30.2 °F 81% 30.10 in 10.0 mi ENE 6.9 mph - N/A   Overcast
9:55 AM 35.6 °F 29.2 °F 32.0 °F 87% 30.09 in 10.0 mi NE 8.1 mph - N/A   Overcast
10:34 AM 37.4 °F 30.8 °F 32.0 °F 81% 30.07 in 10.0 mi ENE 9.2 mph - N/A   Overcast
10:54 AM 37.4 °F 30.8 °F 32.0 °F 81% 30.06 in 10.0 mi ENE 9.2 mph - N/A   Overcast
11:14 AM 37.4 °F 31.4 °F 33.8 °F 87% 30.05 in 10.0 mi NE 8.1 mph - N/A   Overcast
11:34 AM 37.4 °F 31.4 °F 33.8 °F 87% 30.03 in 10.0 mi ENE 8.1 mph - N/A   Overcast
11:54 AM 39.2 °F 34.2 °F 35.6 °F 87% 30.02 in 10.0 mi East 6.9 mph - N/A Rain Rain
12:14 PM 39.2 °F 33.6 °F 35.6 °F 87% 30.00 in 10.0 mi East 8.1 mph - N/A Rain Light Rain
12:34 PM 39.2 °F 31.6 °F 35.6 °F 87% 29.98 in 7.0 mi East 12.7 mph - N/A   Light Drizzle
12:54 PM 39.2 °F 32.0 °F 35.6 °F 87% 29.96 in 3.0 mi East 11.5 mph - N/A Rain Light Rain
1:14 PM 39.2 °F 33.0 °F 35.6 °F 87% 29.95 in 5.0 mi East 9.2 mph - N/A Rain Light Rain
1:34 PM 39.2 °F 33.0 °F 35.6 °F 87% 29.94 in 7.0 mi ENE 9.2 mph - 0.01 in Rain Light Rain
1:54 PM 39.2 °F 33.6 °F 35.6 °F 87% 29.92 in 7.0 mi ENE 8.1 mph - 0.04 in Rain Rain
2:14 PM 39.2 °F 32.5 °F 35.6 °F 87% 29.90 in 7.0 mi ENE 10.4 mph - 0.02 in Rain Light Rain
2:34 PM 39.2 °F 32.5 °F 35.6 °F 87% 29.88 in 10.0 mi ENE 10.4 mph 16.1 mph 0.03 in Rain Rain
2:54 PM 39.2 °F 33.6 °F 35.6 °F 87% 29.87 in 10.0 mi ENE 8.1 mph 17.3 mph 0.03 in Rain Light Rain
3:14 PM 39.2 °F 32.5 °F 35.6 °F 87% 29.86 in 10.0 mi East 10.4 mph - 0.01 in Rain Light Rain
3:34 PM 39.2 °F 32.5 °F 37.4 °F 93% 29.85 in 10.0 mi ENE 10.4 mph - 0.03 in Rain Light Rain
3:54 PM 39.2 °F 33.6 °F 37.4 °F 93% 29.85 in 10.0 mi East 8.1 mph - 0.04 in Rain Light Rain
4:15 PM 39.2 °F 33.6 °F 37.4 °F 93% 29.83 in 7.0 mi East 8.1 mph - 0.03 in Rain Light Rain
4:34 PM 39.2 °F 33.6 °F 37.4 °F 93% 29.83 in 10.0 mi East 8.1 mph - 0.03 in   Overcast
4:54 PM 39.2 °F 34.2 °F 37.4 °F 93% 29.82 in 10.0 mi ENE 6.9 mph - 0.03 in   Overcast
5:14 PM 39.2 °F 34.2 °F 37.4 °F 93% 29.81 in 7.0 mi East 6.9 mph - N/A   Overcast
5:34 PM 41.0 °F 39.0 °F 37.4 °F 87% 29.80 in 7.0 mi ENE 3.5 mph - 0.01 in Rain Rain
5:54 PM 41.0 °F 39.0 °F 37.4 °F 87% 29.80 in 7.0 mi ENE 3.5 mph - 0.01 in   Overcast
6:14 PM 41.0 °F - 37.4 °F 87% 29.79 in 2.0 mi Calm Calm - N/A   Drizzle
6:34 PM 41.0 °F 38.0 °F 37.4 °F 87% 29.78 in 1.8 mi ENE 4.6 mph - N/A Rain Light Rain
6:54 PM 39.2 °F 35.9 °F 37.4 °F 93% 29.75 in 1.5 mi ENE 4.6 mph - 0.01 in   Overcast
7:14 PM 39.2 °F - 37.4 °F 93% 29.75 in 1.5 mi Calm Calm - N/A   Overcast
7:34 PM 41.0 °F 39.0 °F 39.2 °F 93% 29.74 in 1.2 mi ESE 3.5 mph - N/A   Overcast
7:54 PM 42.8 °F 41.1 °F 41.0 °F 93% 29.73 in 1.5 mi ESE 3.5 mph - N/A   Overcast
8:14 PM 42.8 °F 41.1 °F 41.0 °F 93% 29.72 in 1.2 mi ESE 3.5 mph - N/A   Overcast
8:34 PM 42.8 °F - 41.0 °F 93% 29.72 in 1.0 mi Calm Calm - N/A   Overcast
8:54 PM 42.8 °F - 41.0 °F 93% 29.70 in 1.0 mi Calm Calm - 0.01 in   Overcast
9:14 PM 42.8 °F 41.1 °F 41.0 °F 93% 29.69 in 0.8 mi SE 3.5 mph - N/A   Overcast
9:34 PM 42.8 °F 39.3 °F 41.0 °F 93% 29.69 in 1.2 mi SSE 5.8 mph - N/A   Overcast
9:54 PM 42.8 °F 41.1 °F 41.0 °F 93% 29.67 in 1.2 mi SE 3.5 mph - N/A   Overcast
10:14 PM 42.8 °F 40.1 °F 41.0 °F 93% 29.67 in 1.0 mi SSE 4.6 mph - N/A   Overcast
10:35 PM 42.8 °F - 41.0 °F 93% 29.66 in 0.8 mi Calm Calm - N/A   Overcast
10:54 PM 42.8 °F - 41.0 °F 93% 29.64 in 0.2 mi Calm Calm - N/A Fog Fog
11:14 PM 42.8 °F - 41.0 °F 93% 29.64 in 0.2 mi Calm Calm - N/A Fog Fog
11:34 PM 42.8 °F - 39.2 °F 87% 29.63 in 0.2 mi Calm Calm - N/A Fog Fog
11:54 PM 42.8 °F - 41.0 °F 93% 29.63 in 0.2 mi Calm Calm - N/A Rain Light Rain